Time;durP1;ratioP1;P1;durP2;ratioP2;P2;SDS_P1;SDS_P2;PMS_P1;PMS_P2;Temp;Humidity;BMP_temperature;BMP_pressure;BME280_temperature;BME280_humidity;BME280_pressure;Samples;Min_cycle;Max_cycle;Signal;HPM_P1;HPM_P2
2021/12/10 19:03:28;;;;;;;14.3;7.4;;;;;;;3.41;85.00684;920.7078;;;;
2021/12/10 19:06:02;;;;;;;17.9;11.6;;;;;;;3.52;85.0752;920.7455;;;;
2021/12/10 19:08:27;;;;;;;16.2;10.4;;;;;;;3.54;84.43848;920.7865;;;;
2021/12/10 19:10:54;;;;;;;13.7;10;;;;;;;3.48;84.5498;920.7625;;;;
2021/12/10 19:13:20;;;;;;;11.6;8.2;;;;;;;3.47;84.26563;920.7183;;;;
2021/12/10 19:15:52;;;;;;;13;9.2;;;;;;;2.99;86.22559;920.878;;;;
2021/12/10 19:18:18;;;;;;;13.2;8.9;;;;;;;2.9;87.02539;920.925;;;;
2021/12/10 19:20:45;;;;;;;15.7;9.9;;;;;;;2.81;87.43164;920.9053;;;;
2021/12/10 19:23:10;;;;;;;17;10.8;;;;;;;2.68;88.0332;920.8918;;;;
2021/12/10 19:25:42;;;;;;;17.9;10.4;;;;;;;2.37;89.64941;920.9492;;;;
2021/12/10 19:28:07;;;;;;;30.8;19;;;;;;;2.35;89.9375;920.8658;;;;
2021/12/10 19:30:32;;;;;;;13.8;9.2;;;;;;;2.36;90.20801;920.895;;;;
2021/12/10 19:32:57;;;;;;;11.3;7;;;;;;;2.39;89.93359;920.8961;;;;
2021/12/10 19:35:22;;;;;;;11.6;7.3;;;;;;;2.41;89.80273;920.9295;;;;
2021/12/10 19:37:47;;;;;;;7.4;5.5;;;;;;;2.49;89.32715;921.0067;;;;
2021/12/10 19:40:12;;;;;;;5.6;4.3;;;;;;;2.53;88.83301;920.9938;;;;
2021/12/10 19:42:38;;;;;;;9.7;7.8;;;;;;;2.64;88.67383;921.0627;;;;
2021/12/10 19:45:03;;;;;;;5.4;4.1;;;;;;;2.64;88.33984;921.1225;;;;
2021/12/10 19:47:28;;;;;;;3.9;2.9;;;;;;;2.62;88.54883;921.1286;;;;
2021/12/10 19:49:55;;;;;;;5.3;4.8;;;;;;;2.67;88.22363;921.21;;;;
2021/12/10 19:52:18;;;;;;;10.1;7.4;;;;;;;2.75;87.61328;921.269;;;;
2021/12/10 19:54:43;;;;;;;20.9;14.7;;;;;;;2.39;88.33008;921.196;;;;
2021/12/10 19:57:08;;;;;;;35.5;23.8;;;;;;;2.13;89.50879;921.3636;;;;
2021/12/10 19:59:34;;;;;;;70.4;45.8;;;;;;;1.91;90.50391;921.344;;;;
2021/12/10 20:01:59;;;;;;;12.1;7.9;;;;;;;1.93;91.25586;921.3661;;;;
2021/12/10 20:04:25;;;;;;;33.5;23.2;;;;;;;2.1;90.76855;921.3672;;;;
2021/12/10 20:06:50;;;;;;;10.9;7.4;;;;;;;1.99;91.25977;921.4612;;;;
2021/12/10 20:09:15;;;;;;;11;7.2;;;;;;;2.12;91.02051;921.4939;;;;
2021/12/10 20:11:40;;;;;;;8.7;5.2;;;;;;;2.18;90.62891;921.508;;;;
2021/12/10 20:14:06;;;;;;;9.6;6.8;;;;;;;2.32;89.90918;921.58;;;;
2021/12/10 20:16:31;;;;;;;10.2;6.7;;;;;;;2.46;89.38867;921.6267;;;;
2021/12/10 20:18:58;;;;;;;10.2;6.6;;;;;;;2.26;90.20703;921.7589;;;;
2021/12/10 20:23:06;;;;;;;17.1;11.6;;;;;;;2.14;90.6084;921.7814;;;;
2021/12/10 20:23:56;;;;;;;18;13.9;;;;;;;2.23;90.87402;921.7492;;;;
2021/12/10 20:26:21;;;;;;;15.5;11.2;;;;;;;2.32;90.33301;921.7558;;;;
2021/12/10 20:28:50;;;;;;;17.3;11.3;;;;;;;2.35;90.05859;921.8521;;;;
2021/12/10 20:31:15;;;;;;;11.2;7.7;;;;;;;2.52;89.40039;921.8247;;;;
2021/12/10 20:33:41;;;;;;;10.8;7.3;;;;;;;2.43;89.0918;921.8212;;;;
2021/12/10 20:36:07;;;;;;;11;7.1;;;;;;;2.47;88.79688;921.9285;;;;
2021/12/10 20:38:34;;;;;;;9.8;6.3;;;;;;;2.49;88.59863;921.9673;;;;
2021/12/10 20:40:57;;;;;;;7.9;5;;;;;;;2.5;88.54492;922.0098;;;;
2021/12/10 20:43:24;;;;;;;4.3;3.6;;;;;;;2.55;88.16602;922.0922;;;;
2021/12/10 20:45:48;;;;;;;11.3;8.5;;;;;;;2.41;88.89746;921.9938;;;;
2021/12/10 20:53:41;;;;;;;12.5;8.2;;;;;;;2.59;87.71191;922.1106;;;;
2021/12/10 20:56:08;;;;;;;15.4;8.8;;;;;;;2.52;87.78809;922.1311;;;;
2021/12/10 20:58:33;;;;;;;11.1;7.2;;;;;;;2.54;87.9248;922.1188;;;;
2021/12/10 21:00:59;;;;;;;10.7;5.1;;;;;;;2.53;87.4873;922.231;;;;
2021/12/10 21:03:25;;;;;;;6.6;3.6;;;;;;;2.26;88.6416;922.2011;;;;
2021/12/10 21:05:50;;;;;;;12.3;10.3;;;;;;;2.1;89.59277;922.2425;;;;
2021/12/10 21:08:15;;;;;;;11.4;5.8;;;;;;;2.11;90.07617;922.3258;;;;
2021/12/10 21:10:40;;;;;;;9.9;5;;;;;;;2.33;89.04883;922.3591;;;;
2021/12/10 21:13:06;;;;;;;42.8;14.1;;;;;;;2.41;88.32617;922.3928;;;;
2021/12/10 21:15:30;;;;;;;74.1;23.9;;;;;;;2.27;88.82227;922.4501;;;;
2021/12/10 21:17:58;;;;;;;15.5;6.2;;;;;;;1.94;89.95215;922.5176;;;;
2021/12/10 21:23:59;;;;;;;14.5;7.5;;;;;;;2.02;90.41504;922.6423;;;;
2021/12/10 21:26:24;;;;;;;11;6.9;;;;;;;2.12;90.14648;922.6133;;;;
2021/12/10 21:28:56;;;;;;;10.3;6.5;;;;;;;2.15;89.53711;922.6883;;;;
2021/12/10 21:31:14;;;;;;;23.1;12.3;;;;;;;1.94;89.9502;922.6439;;;;
2021/12/10 21:33:44;;;;;;;16.3;9.3;;;;;;;1.7;91.1084;922.679;;;;
2021/12/10 21:36:12;;;;;;;10.1;7.2;;;;;;;1.54;92.22461;922.6948;;;;
2021/12/10 21:38:30;;;;;;;10.8;7.5;;;;;;;1.89;91.49414;922.7216;;;;
2021/12/10 21:40:59;;;;;;;8.9;6.2;;;;;;;2.18;89.88965;922.7783;;;;
2021/12/10 21:43:24;;;;;;;7.1;5;;;;;;;2.35;88.6377;922.8997;;;;
2021/12/10 21:45:48;;;;;;;72.7;66.2;;;;;;;2.14;88.97363;922.8044;;;;
2021/12/10 21:48:13;;;;;;;27.4;24.7;;;;;;;2.07;89.02734;922.95;;;;
2021/12/10 21:50:41;;;;;;;17.9;16;;;;;;;1.72;90.86621;922.9885;;;;
2021/12/10 21:53:09;;;;;;;9.3;6.4;;;;;;;1.65;91.1416;923.064;;;;
2021/12/10 21:55:32;;;;;;;11.2;8.6;;;;;;;1.88;90.57617;923.1038;;;;
2021/12/10 21:58:01;;;;;;;10.9;7;;;;;;;2.05;89.3252;923.1844;;;;
2021/12/10 22:00:26;;;;;;;9.5;6.8;;;;;;;2.15;88.1709;923.1115;;;;
2021/12/10 22:02:52;;;;;;;10.2;7.2;;;;;;;2.23;87.7041;923.0706;;;;
2021/12/10 22:05:16;;;;;;;11.7;7.8;;;;;;;1.91;88.8252;923.2988;;;;
2021/12/10 22:07:41;;;;;;;13;8.9;;;;;;;2.06;88.53125;923.3408;;;;
2021/12/10 22:10:06;;;;;;;11;7.1;;;;;;;1.93;88.71875;923.4153;;;;
2021/12/10 22:12:32;;;;;;;9.6;6.1;;;;;;;1.77;89.02051;923.4725;;;;
2021/12/10 22:14:57;;;;;;;8.1;5.3;;;;;;;1.69;89.22754;923.4428;;;;
2021/12/10 22:17:22;;;;;;;18.2;16.1;;;;;;;1.63;89.64063;923.3705;;;;
2021/12/10 22:19:52;;;;;;;10.2;6.3;;;;;;;1.44;90.16895;923.5477;;;;
2021/12/10 22:22:17;;;;;;;9;5.8;;;;;;;1.5;89.39746;923.5912;;;;
2021/12/10 22:24:42;;;;;;;14.8;9;;;;;;;1.72;89.09863;923.5697;;;;
2021/12/10 22:27:07;;;;;;;15.5;10.1;;;;;;;1.63;89.41504;923.5822;;;;
2021/12/10 22:29:32;;;;;;;15.9;10.4;;;;;;;1.71;88.9834;923.5977;;;;
2021/12/10 22:31:57;;;;;;;13.6;8.5;;;;;;;1.5;88.53906;923.7112;;;;
2021/12/10 22:34:23;;;;;;;8.1;6;;;;;;;1.4;88.36133;923.7216;;;;
2021/12/10 22:36:55;;;;;;;7.9;5.1;;;;;;;1.21;88.58789;923.7333;;;;
2021/12/10 22:39:15;;;;;;;8.2;5.3;;;;;;;1.03;89.6582;923.8007;;;;
2021/12/10 22:41:38;;;;;;;9.4;6.1;;;;;;;0.94;90.46289;923.7562;;;;
2021/12/10 22:44:09;;;;;;;8.7;5.9;;;;;;;0.9;90.63574;923.7978;;;;
2021/12/10 22:46:36;;;;;;;7.8;5.2;;;;;;;0.77;90.2832;923.8761;;;;
2021/12/10 22:49:05;;;;;;;5.6;4;;;;;;;0.57;91.25586;923.963;;;;
2021/12/10 22:51:31;;;;;;;5.9;3.4;;;;;;;0.64;91.32715;924.0181;;;;
2021/12/10 22:53:55;;;;;;;6.3;4.3;;;;;;;0.77;90.09375;923.9818;;;;
2021/12/10 22:56:20;;;;;;;6.1;4.5;;;;;;;0.55;89.65723;924.1215;;;;
2021/12/10 22:58:45;;;;;;;4.9;3.7;;;;;;;0.64;89.94141;924.0525;;;;
2021/12/10 23:01:11;;;;;;;6.3;4.1;;;;;;;0.82;88.69824;924.1227;;;;
2021/12/10 23:03:38;;;;;;;4.7;3.5;;;;;;;0.6;89.49902;924.0975;;;;
2021/12/10 23:06:02;;;;;;;5.5;4.1;;;;;;;0.6;89.24219;924.0876;;;;
2021/12/10 23:08:29;;;;;;;5.8;3.4;;;;;;;0.69;89.27246;924.1813;;;;
2021/12/10 23:10:51;;;;;;;4.3;2.7;;;;;;;0.58;89.51563;924.1174;;;;
2021/12/10 23:13:19;;;;;;;5.2;3.4;;;;;;;0.39;90.11328;924.1775;;;;
2021/12/10 23:15:41;;;;;;;6.4;4.4;;;;;;;0.63;90.54199;924.0381;;;;
2021/12/10 23:18:06;;;;;;;6.4;3.5;;;;;;;0.48;89.6748;924.1183;;;;
2021/12/10 23:20:32;;;;;;;6;3.6;;;;;;;0.37;90.30957;924.171;;;;
2021/12/10 23:22:57;;;;;;;4.9;3.2;;;;;;;0.27;90.28613;924.163;;;;
2021/12/10 23:25:22;;;;;;;4.6;2.5;;;;;;;0.34;91.24023;924.2022;;;;
2021/12/10 23:27:47;;;;;;;4.9;3.2;;;;;;;0.57;90.82031;924.2784;;;;
2021/12/10 23:30:13;;;;;;;8.2;4;;;;;;;0.89;89.7627;924.2723;;;;
2021/12/10 23:32:37;;;;;;;48.1;16.4;;;;;;;1.12;88.85938;924.2603;;;;
2021/12/10 23:35:06;;;;;;;149.7;47;;;;;;;0.98;89.12109;924.3166;;;;
2021/12/10 23:37:32;;;;;;;8.8;4;;;;;;;1.12;89.0498;924.4108;;;;
2021/12/10 23:40:00;;;;;;;25.5;8.7;;;;;;;1.19;88.0498;924.5144;;;;
2021/12/10 23:42:22;;;;;;;30.1;12.2;;;;;;;1.09;88.82031;924.5323;;;;
2021/12/10 23:44:47;;;;;;;17.9;7.4;;;;;;;0.93;89.05469;924.6203;;;;
2021/12/10 23:47:28;;;;;;;242.7;80.6;;;;;;;1.05;88.84863;924.5795;;;;
2021/12/10 23:49:53;;;;;;;9.3;3.9;;;;;;;1.15;88.10938;924.5025;;;;
2021/12/10 23:52:18;;;;;;;66;21.6;;;;;;;0.97;88.30469;924.5239;;;;
2021/12/10 23:54:43;;;;;;;4.2;2.6;;;;;;;0.9;88.78223;924.6353;;;;
2021/12/10 23:57:09;;;;;;;4;1.8;;;;;;;0.82;88.75293;924.5581;;;;
2021/12/10 23:59:33;;;;;;;347;105;;;;;;;1.02;87.94727;924.592;;;;
